Latest Weather Observations for Point Perpendicular

IDN60801

Issued at 3:35 pm EST Sunday 20 April 2014 (issued every 30 minutes, with the page automatically refreshed every 10 minutes)

About weather observations | Map of weather stations | Latest weather observations for NSW | Other Formats
Station Details ID: 068151 Name: POINT PERPENDICULAR AWS Lat: -35.09 Lon: 150.80 Height: 85.0 m
Data from the previous 72 hours. | See also: Recent months at Point Perpendicular
Date/Time
EST
Temp
°C
App
Temp
°C
Dew
Point
Rel
Hum
%
Delta-T
°C
Wind Press
QNH
hPa
Press
MSL
hPa
Rain
since 9 am
mm
Dir
 
Spd
km/h
Gust
km/h
Spd
kts
Gust
kts
20/03:30pm 21.0 17.9 12.2 57 5.0 NE 20 28 11 15 1014.6 - 0.0
20/03:00pm 21.3 18.7 10.8 51 5.8 N 15 22 8 12 1014.8 1014.6 0.0
20/02:30pm 21.2 18.8 10.1 49 6.0 NNE 13 22 7 12 1014.9 - 0.0
20/02:00pm 20.5 17.7 10.0 51 5.7 NNE 15 24 8 13 1014.9 1014.7 0.0
20/01:30pm 20.4 18.3 9.9 51 5.7 N 11 20 6 11 1015.0 - 0.0
20/01:00pm 20.6 17.6 9.2 48 6.1 N 15 32 8 17 1015.3 1015.1 0.0
20/12:30pm 20.4 18.5 9.0 48 6.0 NNW 9 17 5 9 1015.6 - 0.0
20/12:00pm 20.3 17.0 9.5 50 5.8 NW 17 26 9 14 1016.1 1015.9 0.0
20/11:30am 19.6 16.7 9.5 52 5.4 NW 15 22 8 12 1016.7 - 0.0
20/11:00am 19.5 17.6 10.5 56 4.9 NNW 11 22 6 12 1017.1 1016.9 0.0
20/10:30am 18.7 15.7 9.2 54 5.0 WNW 15 22 8 12 1017.5 - 0.0
20/10:00am 18.0 15.1 9.6 58 4.4 NW 15 24 8 13 1017.9 1017.7 0.0
20/09:30am 17.3 14.9 10.2 63 3.8 NW 13 20 7 11 1018.0 - 0.0
20/09:00am 16.4 14.3 9.6 64 3.6 WNW 11 17 6 9 1018.1 1017.9 0.0
20/08:30am 16.0 13.9 9.7 66 3.3 NW 11 17 6 9 1018.2 - 0.0
20/08:00am 15.2 13.3 10.4 73 2.5 WNW 11 17 6 9 1018.0 1017.8 0.0
20/07:30am 13.6 11.6 10.2 80 1.8 NW 11 15 6 8 1017.8 - 0.0
20/07:00am 13.6 11.8 9.5 76 2.1 WNW 9 11 5 6 1017.4 1017.2 0.0
20/06:30am 12.6 11.1 9.1 79 1.8 WNW 7 9 4 5 1017.2 - 0.0
20/06:00am 12.4 10.2 9.4 82 1.5 WNW 11 15 6 8 1017.2 1017.0 0.0
20/05:30am 14.6 12.5 8.3 66 3.2 W 9 13 5 7 1017.0 - 0.0
20/05:00am 14.8 12.7 8.1 64 3.4 W 9 11 5 6 1016.8 1016.6 0.0
20/04:30am 14.8 12.7 8.3 65 3.3 W 9 11 5 6 1016.8 - 0.0
20/04:00am 14.8 12.3 8.3 65 3.3 WNW 11 11 6 6 1016.8 1016.6 0.0
20/03:30am 15.2 12.9 7.5 60 3.8 W 9 13 5 7 1016.8 - 0.0
20/03:00am 15.0 12.7 7.5 61 3.7 WNW 9 11 5 6 1017.0 1016.8 0.0
20/02:30am 14.6 11.7 8.1 65 3.3 W 13 15 7 8 1017.2 - 0.0
20/02:00am 14.5 12.2 8.9 69 2.8 WNW 11 13 6 7 1017.3 1017.1 0.0
20/01:30am 15.0 12.7 9.1 68 3.0 WNW 11 13 6 7 1017.5 - 0.0
20/01:00am 15.7 13.5 9.4 66 3.3 W 11 17 6 9 1017.7 1017.5 0.0
20/12:30am 16.1 14.4 10.0 67 3.2 W 9 15 5 8 1017.7 - 0.0
20/12:00am 16.2 14.6 10.1 67 3.2 SW 9 17 5 9 1017.7 1017.5 0.0
 
Date/Time
EST
Temp
°C
App
Temp
°C
Dew
Point
Rel
Hum
%
Delta-T
°C
Wind Press
QNH
hPa
Press
MSL
hPa
Rain
since 9 am
mm
Dir
 
Spd
km/h
Gust
km/h
Spd
kts
Gust
kts
19/11:30pm 16.0 13.5 9.7 66 3.3 SW 13 22 7 12 1017.8 - 0.0
19/11:00pm 16.3 14.4 10.4 68 3.1 SW 11 20 6 11 1017.8 1017.6 0.0
19/10:30pm 16.2 14.7 10.5 69 3.0 SW 9 15 5 8 1018.0 - 0.0
19/10:00pm 16.1 14.8 11.3 73 2.6 WSW 9 13 5 7 1018.1 1017.9 0.0
19/09:30pm 16.1 14.8 11.3 73 2.6 WSW 9 13 5 7 1018.0 - 0.0
19/09:00pm 16.2 14.8 10.9 71 2.8 W 9 11 5 6 1017.9 1017.7 0.0
19/08:30pm 17.0 16.8 10.4 65 3.5 SW 2 7 1 4 1017.7 - 0.0
19/08:00pm 17.7 15.7 8.6 55 4.7 SSW 9 15 5 8 1017.6 1017.4 0.0
19/07:30pm 17.8 16.2 8.9 56 4.6 SSW 7 9 4 5 1017.3 - 0.0
19/07:00pm 17.5 15.2 7.5 52 5.0 SSW 9 15 5 8 1017.0 1016.8 0.0
19/06:30pm 17.4 14.9 8.0 54 4.8 S 11 17 6 9 1016.7 - 0.0
19/06:00pm 17.5 15.5 8.6 56 4.6 S 9 15 5 8 1016.2 1016.0 0.0
19/05:30pm 17.3 15.0 7.6 53 4.9 SSW 9 15 5 8 1016.1 - 0.0
19/05:00pm 17.4 14.7 7.2 51 5.1 S 11 20 6 11 1016.1 1015.9 0.0
19/04:30pm 17.8 14.4 7.5 51 5.2 S 15 22 8 12 1015.9 - 0.0
19/04:00pm 18.0 14.8 6.8 48 5.6 SSE 13 22 7 12 1015.7 1015.5 0.0
19/03:30pm 18.1 14.3 7.5 50 5.4 S 17 28 9 15 1015.6 - 0.0
19/03:00pm 17.8 13.9 7.0 49 5.4 S 17 28 9 15 1015.3 1015.1 0.0
19/02:30pm 18.0 14.0 8.3 53 5.0 S 19 28 10 15 1015.4 - 0.0
19/02:00pm 17.6 13.3 7.1 50 5.3 S 19 28 10 15 1015.4 1015.2 0.0
19/01:30pm 17.3 12.9 6.5 49 5.3 S 19 30 10 16 1015.6 - 0.0
19/01:00pm 17.3 13.1 8.2 55 4.7 SSW 20 33 11 18 1015.8 1015.6 0.0
19/12:30pm 17.1 12.8 7.7 54 4.8 SSW 20 30 11 16 1015.9 - 0.0
19/12:00pm 16.9 12.3 6.4 50 5.2 SSW 20 32 11 17 1016.3 1016.1 0.0
19/11:30am 16.6 12.3 7.0 53 4.8 SSW 19 30 10 16 1016.7 - 0.0
19/11:00am 16.4 11.3 6.2 51 5.0 SSW 22 32 12 17 1017.0 1016.8 0.0
19/10:30am 16.4 11.6 7.3 55 4.5 S 22 32 12 17 1017.1 - 0.0
19/10:00am 16.3 11.8 7.0 54 4.6 SSW 20 32 11 17 1017.1 1016.9 0.0
19/09:30am 16.2 11.8 7.2 55 4.5 SSW 20 30 11 16 1017.2 - 0.0
19/09:00am 15.8 11.8 6.5 54 4.5 SW 17 28 9 15 1017.1 1016.9 0.0
19/08:30am 16.0 11.6 6.4 53 4.7 SSW 19 28 10 15 1017.1 - 0.0
19/08:00am 15.7 11.7 6.7 55 4.4 SW 17 28 9 15 1016.9 1016.7 0.0
19/07:30am 15.6 11.8 5.8 52 4.7 SSW 15 24 8 13 1016.7 - 0.0
19/07:00am 15.8 11.3 6.8 55 4.4 SSW 20 32 11 17 1016.2 1016.0 0.0
19/06:30am 16.0 10.8 7.2 56 4.4 SSW 24 39 13 21 1015.7 - 0.0
19/06:00am 16.3 11.5 7.5 56 4.4 SSW 22 30 12 16 1015.1 1014.9 0.0
19/05:30am 16.8 12.0 9.0 60 4.0 SSW 24 35 13 19 1015.0 - 0.0
19/05:00am 16.7 11.0 6.8 52 4.9 SSW 26 41 14 22 1014.5 1014.3 0.0
19/04:30am 16.8 11.5 6.9 52 4.9 SSW 24 33 13 18 1014.5 - 0.0
19/04:00am 17.0 12.2 8.7 58 4.3 SSW 24 41 13 22 1014.4 1014.2 0.0
19/03:30am 17.0 11.9 7.6 54 4.7 SSW 24 35 13 19 1014.3 - 0.0
19/03:00am 17.1 12.3 8.8 58 4.3 S 24 35 13 19 1014.3 1014.1 0.0
19/02:30am 17.1 11.9 9.0 59 4.2 S 26 39 14 21 1014.1 - 0.0
19/02:00am 17.2 12.2 9.4 60 4.1 S 26 44 14 24 1013.9 1013.7 0.0
19/01:30am 17.4 12.9 10.1 62 3.9 S 24 41 13 22 1013.9 - 0.0
19/01:00am 17.6 12.7 10.0 61 4.0 S 26 35 14 19 1014.1 1013.9 0.0
19/12:30am 17.8 13.9 10.7 63 3.8 S 22 35 12 19 1013.9 - 0.0
19/12:00am 17.8 13.8 11.8 68 3.3 S 24 39 13 21 1013.7 1013.5 0.0
 
Date/Time
EST
Temp
°C
App
Temp
°C
Dew
Point
Rel
Hum
%
Delta-T
°C
Wind Press
QNH
hPa
Press
MSL
hPa
Rain
since 9 am
mm
Dir
 
Spd
km/h
Gust
km/h
Spd
kts
Gust
kts
18/11:30pm 18.0 13.6 11.6 66 3.5 S 26 43 14 23 1013.3 - 0.0
18/11:00pm 17.9 14.0 13.2 74 2.7 S 26 48 14 26 1013.6 1013.4 0.0
18/10:30pm 18.9 15.8 13.3 70 3.2 S 22 35 12 19 1013.3 - 0.0
18/10:00pm 19.6 16.8 11.4 59 4.5 WSW 17 30 9 16 1013.7 1013.5 0.0
18/09:30pm 19.7 16.5 10.1 54 5.2 WSW 17 30 9 16 1013.3 - 0.0
18/09:00pm 19.8 17.1 10.5 55 5.1 W 15 26 8 14 1013.1 1012.9 0.0
18/08:30pm 20.0 17.2 10.1 53 5.3 W 15 24 8 13 1012.7 - 0.0
18/08:00pm 20.1 17.7 10.2 53 5.4 W 13 22 7 12 1012.5 1012.3 0.0
18/07:30pm 20.5 17.7 10.0 51 5.7 W 15 28 8 15 1012.2 - 0.0
18/07:00pm 20.8 18.2 9.4 48 6.1 W 13 17 7 9 1012.2 1012.0 0.0
18/06:30pm 21.1 18.3 10.0 49 6.0 W 15 22 8 12 1012.2 - 0.0
18/06:00pm 21.2 18.7 9.8 48 6.2 W 13 22 7 12 1012.0 1011.8 0.0
18/05:30pm 20.3 19.0 11.2 56 5.0 NW 9 20 5 11 1012.2 - 0.0
18/05:00pm 19.9 19.3 11.7 59 4.6 NNE 6 11 3 6 1012.0 1011.8 0.0
18/04:30pm 20.4 20.4 11.3 56 5.0 E 2 7 1 4 1011.8 - 0.0
18/04:00pm 20.7 19.7 10.2 51 5.7 E 6 11 3 6 1011.7 1011.5 0.0
18/03:30pm 21.7 20.3 10.8 50 6.0 ESE 9 13 5 7 1011.7 - 0.0
18/03:00pm 22.1 21.0 11.8 52 5.8 SE 9 13 5 7 1011.8 1011.6 0.0
18/02:30pm 22.1 20.8 12.6 55 5.4 SE 11 17 6 9 1011.8 - 0.0
18/02:00pm 21.3 20.5 11.6 54 5.4 SW 7 13 4 7 1012.2 1012.0 0.0
18/01:30pm 21.9 20.5 11.0 50 6.0 WSW 9 15 5 8 1012.5 - 0.0
18/01:00pm 21.2 19.9 11.2 53 5.5 W 9 15 5 8 1012.7 1012.5 0.0
18/12:30pm 21.2 20.2 12.3 57 5.0 W 9 15 5 8 1013.1 - 0.0
18/12:00pm 21.0 19.0 11.6 55 5.2 W 13 20 7 11 1013.7 1013.5 0.0
18/11:30am 20.4 19.3 11.9 58 4.8 WSW 9 15 5 8 1014.1 - 0.0
18/11:00am 20.5 19.1 12.2 59 4.7 W 11 15 6 8 1014.5 1014.3 0.0
18/10:30am 19.7 18.4 12.5 63 4.1 W 11 17 6 9 1014.8 - 0.0
18/10:00am 19.0 17.3 12.3 65 3.7 WNW 13 20 7 11 1015.2 1015.0 0.0
18/09:30am 17.9 15.3 11.9 68 3.3 W 17 24 9 13 1015.4 - 0.0
18/09:00am 17.3 15.1 12.2 72 2.8 WNW 15 22 8 12 1015.5 1015.3 0.0
18/08:30am 16.3 13.9 11.5 73 2.6 WNW 15 24 8 13 1015.6 - 0.0
18/08:00am 15.7 13.4 11.9 78 2.1 WNW 15 22 8 12 1015.6 1015.4 0.0
18/07:30am 15.0 12.7 11.8 81 1.7 WNW 15 22 8 12 1015.7 - 0.0
18/07:00am 14.3 12.0 11.6 84 1.4 WNW 15 20 8 11 1015.9 1015.7 0.0
18/06:30am 14.6 12.7 11.7 83 1.6 NW 13 17 7 9 1015.7 - 0.0
18/06:00am 14.2 12.9 12.4 89 1.0 NW 11 15 6 8 1015.8 1015.6 0.0
18/05:30am 14.3 13.2 12.0 86 1.2 WNW 9 13 5 7 1015.9 - 0.0
18/05:00am 14.2 13.3 12.6 90 0.9 WNW 9 11 5 6 1016.2 1016.0 0.0
18/04:30am 14.5 13.2 12.5 88 1.1 WNW 11 13 6 7 1016.3 - 0.0
18/04:00am 14.4 12.7 12.4 88 1.1 WNW 13 13 7 7 1016.6 1016.4 0.0
18/03:30am 15.6 15.1 12.7 83 1.6 W 7 9 4 5 1016.7 - 0.0
18/03:00am 15.4 14.2 12.7 84 1.5 W 11 13 6 7 1016.8 1016.6 0.0
18/02:30am 16.2 15.0 12.7 80 1.9 W 11 13 6 7 1017.0 - 0.0
18/02:00am 16.1 15.2 12.5 79 2.0 W 9 11 5 6 1017.2 1017.0 0.0
18/01:30am 16.6 15.9 13.1 80 2.0 W 9 13 5 7 1017.5 - 0.0
18/01:00am 16.7 15.6 13.0 79 2.1 W 11 15 6 8 1017.8 1017.6 0.0
18/12:30am 16.8 15.8 13.3 80 2.0 W 11 15 6 8 1018.0 - 0.0
18/12:00am 16.9 15.8 13.2 79 2.1 W 11 15 6 8 1018.2 1018.0 0.0
 
Date/Time
EST
Temp
°C
App
Temp
°C
Dew
Point
Rel
Hum
%
Delta-T
°C
Wind Press
QNH
hPa
Press
MSL
hPa
Rain
since 9 am
mm
Dir
 
Spd
km/h
Gust
km/h
Spd
kts
Gust
kts
17/11:30pm 17.2 16.3 12.7 75 2.5 WNW 9 13 5 7 1018.4 - 0.0
17/11:00pm 17.1 16.3 12.8 76 2.4 WSW 9 13 5 7 1018.7 1018.5 0.0
17/10:30pm 17.2 16.4 12.9 76 2.4 W 9 15 5 8 1019.2 - 0.0
17/10:00pm 17.4 16.8 13.5 78 2.2 WSW 9 13 5 7 1019.4 1019.2 0.0
17/09:30pm 18.0 17.8 13.5 75 2.6 W 7 11 4 6 1019.4 - 0.0
17/09:00pm 19.2 17.1 11.3 60 4.3 S 13 22 7 12 1019.0 1018.8 0.0
17/08:30pm 19.2 17.6 11.7 62 4.2 SSW 11 20 6 11 1019.1 - 0.0
17/08:00pm 18.9 17.1 12.2 65 3.7 S 13 24 7 13 1019.0 1018.8 0.0
17/07:30pm 19.0 16.7 11.8 63 4.0 S 15 24 8 13 1018.8 - 0.0
17/07:00pm 19.0 16.9 12.3 65 3.7 S 15 24 8 13 1018.8 1018.6 0.0
17/06:30pm 19.1 17.2 11.7 62 4.1 S 13 24 7 13 1018.5 - 0.0
17/06:00pm 18.9 16.9 12.6 67 3.5 S 15 26 8 14 1018.5 1018.3 0.0
17/05:30pm 18.8 16.9 13.0 69 3.3 S 15 30 8 16 1018.4 - 0.0
17/05:00pm 18.8 16.2 13.2 70 3.2 S 19 30 10 16 1018.2 1018.0 0.0
17/04:30pm 19.1 16.7 12.8 67 3.6 S 17 28 9 15 1017.9 - 0.0
17/04:00pm 19.1 16.7 13.9 72 3.0 S 19 30 10 16 1017.8 1017.6 0.0

Other Formats:

Comma delimited format used in spreadsheet applications
http://www.bom.gov.au/fwo/IDN60801/IDN60801.95940.axf

JavaScript Object Notation format (JSON) in row-major order
http://www.bom.gov.au/fwo/IDN60801/IDN60801.95940.json